Preview of NWS' New Version of Forecast
This preview is not operational and should not be used for support decisions.

Terminal Aerodrome Forecast (TAF)

Issued by National Weather Service (NWS)

                            
000
FTUS45 KBOI 171737
TAFMYL
TAF
KMYL 171737Z 1718/1818 VRB03KT P6SM BKN150
     FM171900 22010G20KT P6SM BKN120
     FM180600 VRB05KT P6SM SCT200=